Time;durP1;ratioP1;P1;durP2;ratioP2;P2;SDS_P1;SDS_P2;PMS_P1;PMS_P2;Temp;Humidity;BMP_temperature;BMP_pressure;BME280_temperature;BME280_humidity;BME280_pressure;Samples;Min_cycle;Max_cycle;Signal;HPM_P1;HPM_P2
2023/06/29 00:00:41;;;;;;;34.78;21.52;;;18.40;97.70;;;;;;5039672;28;20044;-62
2023/06/29 00:03:07;;;;;;;36.05;21.98;;;18.40;97.60;;;;;;5038619;28;20049;-62
2023/06/29 00:05:32;;;;;;;37.58;22.05;;;18.40;97.70;;;;;;5038234;28;20041;-62
2023/06/29 00:07:59;;;;;;;33.78;19.73;;;18.40;97.80;;;;;;5036867;28;20089;-62
2023/06/29 00:10:25;;;;;;;35.35;20.08;;;18.40;97.80;;;;;;5044090;28;20116;-62
2023/06/29 00:12:52;;;;;;;36.78;22.05;;;18.40;97.80;;;;;;5038671;28;20101;-63
2023/06/29 00:15:17;;;;;;;36.10;20.27;;;18.40;97.80;;;;;;5035980;28;20602;-62
2023/06/29 00:17:47;;;;;;;35.33;20.13;;;18.30;97.80;;;;;;5034714;28;20053;-61
2023/06/29 00:20:15;;;;;;;36.10;21.15;;;18.40;97.90;;;;;;5048085;28;20037;-63
2023/06/29 00:22:47;;;;;;;37.83;21.05;;;18.30;97.80;;;;;;5038075;28;20606;-63
2023/06/29 00:25:14;;;;;;;34.88;20.42;;;18.30;97.80;;;;;;5040977;28;20107;-62
2023/06/29 00:27:39;;;;;;;33.65;19.92;;;18.30;97.80;;;;;;5041596;28;20060;-62
2023/06/29 00:30:06;;;;;;;33.63;20.52;;;18.40;97.80;;;;;;5034930;28;20106;-63
2023/06/29 00:32:31;;;;;;;35.55;21.70;;;18.30;97.80;;;;;;5046132;28;20471;-62
2023/06/29 00:34:57;;;;;;;31.42;19.15;;;18.30;97.70;;;;;;5043588;28;20056;-62
2023/06/29 00:37:22;;;;;;;35.58;21.33;;;18.30;97.70;;;;;;5031894;28;20033;-62
2023/06/29 00:39:48;;;;;;;34.22;19.88;;;18.30;97.80;;;;;;5045588;28;20360;-62
2023/06/29 00:42:14;;;;;;;35.88;21.15;;;18.30;97.80;;;;;;5036965;28;20438;-62
2023/06/29 00:44:39;;;;;;;37.67;21.40;;;18.30;97.70;;;;;;5021261;28;20107;-63
2023/06/29 00:47:05;;;;;;;34.90;21.20;;;18.30;97.80;;;;;;5010183;28;20069;-62
2023/06/29 00:49:30;;;;;;;38.10;22.20;;;18.30;97.80;;;;;;5028494;28;20065;-62
2023/06/29 00:51:56;;;;;;;39.92;21.50;;;18.30;97.80;;;;;;5035911;28;20037;-62
2023/06/29 00:54:22;;;;;;;36.03;21.58;;;18.30;97.90;;;;;;5049312;28;20065;-62
2023/06/29 00:56:48;;;;;;;37.45;22.45;;;18.20;97.90;;;;;;5036006;28;20052;-62
2023/06/29 00:59:14;;;;;;;36.40;22.45;;;18.30;98.00;;;;;;5035047;28;20369;-62
2023/06/29 01:01:41;;;;;;;41.33;23.75;;;18.20;97.90;;;;;;5034783;28;20044;-62
2023/06/29 01:04:08;;;;;;;39.67;22.83;;;18.30;97.90;;;;;;5036059;28;20479;-62
2023/06/29 01:06:54;;;;;;;39.80;24.02;;;18.30;97.90;;;;;;5037446;28;20108;-62
2023/06/29 01:09:19;;;;;;;37.70;22.95;;;18.20;98.00;;;;;;5034907;28;20125;-63
2023/06/29 01:11:46;;;;;;;34.67;22.00;;;18.20;97.90;;;;;;5033155;28;20370;-62
2023/06/29 01:14:15;;;;;;;38.17;22.52;;;18.20;97.90;;;;;;5032835;28;20084;-61
2023/06/29 01:16:42;;;;;;;41.67;22.35;;;18.20;97.90;;;;;;5034999;28;20065;-62
2023/06/29 01:19:11;;;;;;;38.15;22.80;;;18.20;98.00;;;;;;5034478;28;20044;-62
2023/06/29 01:21:54;;;;;;;38.05;22.55;;;18.20;98.00;;;;;;5036047;28;20125;-63
2023/06/29 01:24:24;;;;;;;36.75;22.88;;;18.20;98.20;;;;;;5034159;28;20033;-62
2023/06/29 01:26:50;;;;;;;38.10;22.27;;;18.20;98.20;;;;;;5046044;28;22152;-62
2023/06/29 01:29:24;;;;;;;34.60;21.05;;;18.20;98.10;;;;;;5026795;28;20488;-63
2023/06/29 01:31:53;;;;;;;38.63;22.70;;;18.20;98.10;;;;;;5030066;28;20072;-62
2023/06/29 01:34:20;;;;;;;40.22;23.20;;;18.20;98.20;;;;;;5041369;28;20063;-62
2023/06/29 01:36:49;;;;;;;45.33;23.83;;;18.20;98.10;;;;;;5046255;28;20033;-62
2023/06/29 01:39:22;;;;;;;42.00;24.35;;;18.20;98.10;;;;;;5036658;28;20036;-62
2023/06/29 01:41:48;;;;;;;42.90;23.25;;;18.20;98.30;;;;;;5039988;28;20041;-62
2023/06/29 01:44:15;;;;;;;39.05;24.17;;;18.20;98.20;;;;;;5026887;28;20445;-63
2023/06/29 01:46:43;;;;;;;39.97;24.38;;;18.10;98.20;;;;;;5031991;28;20067;-62
2023/06/29 01:49:09;;;;;;;40.95;22.55;;;18.10;98.30;;;;;;5036653;28;20160;-62
2023/06/29 01:51:35;;;;;;;37.35;23.52;;;18.10;98.20;;;;;;5034853;28;20107;-62
2023/06/29 01:54:01;;;;;;;37.08;22.65;;;18.10;98.30;;;;;;5026527;28;20041;-62
2023/06/29 01:56:27;;;;;;;42.10;24.70;;;18.10;98.30;;;;;;5039177;28;20443;-61
2023/06/29 01:58:52;;;;;;;37.13;22.88;;;18.10;98.30;;;;;;5043822;28;20037;-62
2023/06/29 02:01:18;;;;;;;44.25;24.17;;;18.10;98.40;;;;;;5039805;28;20033;-62
2023/06/29 02:03:43;;;;;;;39.05;24.25;;;18.10;98.70;;;;;;5036302;28;20039;-61
2023/06/29 02:06:09;;;;;;;40.88;23.50;;;18.10;98.50;;;;;;5039156;28;20052;-63
2023/06/29 02:08:34;;;;;;;40.60;23.23;;;18.10;98.50;;;;;;5033294;28;20060;-63
2023/06/29 02:11:00;;;;;;;43.15;25.08;;;18.10;98.60;;;;;;5040273;28;20094;-62
2023/06/29 02:13:26;;;;;;;37.92;23.05;;;18.10;98.60;;;;;;5037392;28;20097;-63
2023/06/29 02:15:52;;;;;;;40.40;22.90;;;18.10;98.60;;;;;;5036161;28;20133;-62
2023/06/29 02:18:17;;;;;;;40.65;24.58;;;18.10;98.60;;;;;;5046198;28;20089;-61
2023/06/29 02:20:43;;;;;;;42.38;23.83;;;18.10;98.60;;;;;;5049495;28;20445;-62
2023/06/29 02:23:08;;;;;;;39.63;24.25;;;18.10;98.60;;;;;;5035919;28;20534;-62
2023/06/29 02:25:34;;;;;;;38.85;23.67;;;18.10;98.60;;;;;;5042431;28;20060;-64
2023/06/29 02:27:59;;;;;;;41.80;22.85;;;18.10;98.60;;;;;;5042265;28;20551;-61
2023/06/29 02:30:25;;;;;;;39.78;23.55;;;18.10;98.60;;;;;;5032788;28;20174;-62
2023/06/29 02:32:50;;;;;;;40.85;22.48;;;18.10;98.50;;;;;;5007315;28;20055;-61
2023/06/29 02:35:16;;;;;;;37.97;22.10;;;18.10;98.50;;;;;;5032079;28;20396;-62
2023/06/29 02:37:42;;;;;;;44.35;25.83;;;18.10;98.50;;;;;;5031233;28;20476;-62
2023/06/29 02:40:08;;;;;;;45.10;24.58;;;18.10;98.50;;;;;;5031006;28;20041;-62
2023/06/29 02:42:33;;;;;;;38.05;23.75;;;18.10;98.60;;;;;;5030800;28;20077;-62
2023/06/29 02:44:59;;;;;;;38.05;23.35;;;18.10;98.50;;;;;;5026169;28;20583;-63
2023/06/29 02:47:24;;;;;;;40.88;23.92;;;18.10;98.50;;;;;;5026021;28;20049;-63
2023/06/29 02:49:50;;;;;;;39.95;23.48;;;18.10;98.50;;;;;;5042382;28;20102;-62
2023/06/29 02:52:15;;;;;;;36.58;23.73;;;18.10;98.50;;;;;;5045369;28;20098;-62
2023/06/29 02:54:41;;;;;;;37.10;23.17;;;18.10;98.50;;;;;;5043071;28;20037;-61
2023/06/29 02:57:07;;;;;;;34.10;23.13;;;18.10;98.80;;;;;;5040034;28;20041;-63
2023/06/29 02:59:33;;;;;;;35.05;23.10;;;18.10;98.40;;;;;;5033569;28;20041;-64
2023/06/29 03:01:59;;;;;;;38.28;23.27;;;18.10;98.40;;;;;;5028541;28;20029;-62
2023/06/29 03:04:24;;;;;;;38.25;22.75;;;18.10;98.40;;;;;;5043566;28;20036;-63
2023/06/29 03:06:50;;;;;;;36.50;22.52;;;18.00;98.40;;;;;;5046882;28;20051;-62
2023/06/29 03:09:15;;;;;;;38.92;23.88;;;18.00;98.40;;;;;;5041247;28;20064;-63
2023/06/29 03:11:41;;;;;;;44.30;24.33;;;18.10;98.40;;;;;;5039205;28;20045;-62
2023/06/29 03:14:06;;;;;;;39.55;24.00;;;18.00;98.40;;;;;;5038711;28;20064;-63
2023/06/29 03:16:32;;;;;;;40.70;23.58;;;18.00;98.40;;;;;;5035847;28;20040;-62
2023/06/29 03:18:58;;;;;;;41.95;24.08;;;18.00;98.40;;;;;;5031877;28;20433;-62
2023/06/29 03:21:23;;;;;;;42.85;24.35;;;18.00;98.40;;;;;;5041801;28;20515;-63
2023/06/29 03:23:49;;;;;;;41.03;25.20;;;18.00;98.40;;;;;;5038907;28;20160;-62
2023/06/29 03:26:15;;;;;;;40.05;24.33;;;18.00;98.40;;;;;;5036886;28;20068;-62
2023/06/29 03:28:40;;;;;;;36.58;22.70;;;18.00;98.50;;;;;;5036582;28;20086;-61
2023/06/29 03:31:06;;;;;;;37.65;23.58;;;18.00;98.50;;;;;;5039328;28;20507;-62
2023/06/29 03:33:32;;;;;;;41.85;24.33;;;18.00;98.40;;;;;;5037085;28;20038;-62
2023/06/29 03:35:57;;;;;;;38.35;23.45;;;18.00;98.40;;;;;;5031763;28;20053;-61
2023/06/29 03:38:23;;;;;;;39.08;24.40;;;18.00;98.50;;;;;;5033877;28;20041;-62
2023/06/29 03:40:48;;;;;;;47.58;24.15;;;18.00;98.50;;;;;;5042273;28;20033;-62
2023/06/29 03:43:14;;;;;;;42.95;24.25;;;18.00;98.50;;;;;;5039785;28;20041;-62
2023/06/29 03:45:39;;;;;;;43.85;24.92;;;18.00;98.50;;;;;;5026677;28;20045;-63
2023/06/29 03:48:05;;;;;;;40.47;23.27;;;18.00;98.50;;;;;;5038429;28;20148;-62
2023/06/29 03:50:30;;;;;;;40.65;23.85;;;18.00;98.50;;;;;;5038617;28;20064;-62
2023/06/29 03:52:56;;;;;;;35.97;23.00;;;18.10;98.50;;;;;;5039231;28;20065;-63
2023/06/29 03:55:24;;;;;;;41.28;23.70;;;18.10;98.50;;;;;;5030995;28;20076;-63
2023/06/29 03:57:50;;;;;;;40.60;23.33;;;18.10;98.50;;;;;;5037903;28;20044;-62
2023/06/29 04:00:15;;;;;;;38.28;23.15;;;18.10;98.40;;;;;;5044742;28;20037;-63
2023/06/29 04:02:41;;;;;;;41.90;24.27;;;18.20;98.40;;;;;;5032934;28;20041;-61
2023/06/29 04:05:07;;;;;;;41.15;24.10;;;18.20;98.30;;;;;;5045906;28;20033;-62
2023/06/29 04:07:33;;;;;;;38.22;24.73;;;18.20;98.30;;;;;;5050033;28;20041;-62
2023/06/29 04:09:59;;;;;;;35.95;23.17;;;18.20;98.20;;;;;;5040463;28;20047;-62
2023/06/29 04:12:24;;;;;;;40.15;23.80;;;18.30;98.10;;;;;;5041245;28;20048;-62
2023/06/29 04:14:50;;;;;;;38.13;24.10;;;18.30;98.00;;;;;;5042398;28;20055;-62
2023/06/29 04:17:15;;;;;;;41.60;22.83;;;18.30;98.00;;;;;;5037564;28;20119;-62
2023/06/29 04:19:41;;;;;;;39.30;24.35;;;18.30;97.90;;;;;;5019084;28;20126;-61
2023/06/29 04:22:06;;;;;;;41.50;23.00;;;18.30;97.90;;;;;;5038607;28;20114;-63
2023/06/29 04:24:32;;;;;;;36.13;23.40;;;18.30;97.80;;;;;;5041055;28;20033;-62
2023/06/29 04:26:57;;;;;;;41.85;24.17;;;18.40;97.80;;;;;;5040019;28;20120;-62
2023/06/29 04:29:23;;;;;;;44.55;25.05;;;18.40;97.80;;;;;;5038863;28;20087;-62
2023/06/29 04:31:50;;;;;;;42.08;24.25;;;18.40;97.70;;;;;;5034329;28;20108;-62
2023/06/29 04:34:17;;;;;;;38.95;23.17;;;18.40;97.60;;;;;;5031725;28;20041;-62
2023/06/29 04:36:45;;;;;;;39.05;23.20;;;18.40;97.50;;;;;;5038368;28;20053;-62
2023/06/29 04:39:15;;;;;;;41.42;24.00;;;18.50;97.60;;;;;;5032505;28;20041;-63
2023/06/29 04:41:41;;;;;;;41.47;22.98;;;18.50;97.40;;;;;;5033212;28;20037;-63
2023/06/29 04:44:08;;;;;;;40.33;23.42;;;18.50;97.40;;;;;;5025895;28;20050;-63
2023/06/29 04:46:36;;;;;;;39.30;23.25;;;18.50;97.30;;;;;;5035844;28;20048;-61
2023/06/29 04:49:04;;;;;;;37.03;23.45;;;18.60;97.20;;;;;;5047877;28;20052;-62
2023/06/29 04:51:30;;;;;;;36.92;22.40;;;18.60;97.10;;;;;;5036956;28;20127;-63
2023/06/29 04:53:56;;;;;;;39.97;23.20;;;18.70;96.90;;;;;;5040958;28;20596;-63
2023/06/29 04:56:21;;;;;;;38.22;23.02;;;18.70;96.80;;;;;;5039864;28;20034;-62
2023/06/29 04:58:47;;;;;;;38.92;22.98;;;18.80;96.60;;;;;;5034563;28;20102;-61
2023/06/29 05:01:13;;;;;;;35.00;22.67;;;18.90;96.40;;;;;;5032264;28;20128;-62
2023/06/29 05:03:38;;;;;;;39.33;24.42;;;18.90;96.20;;;;;;5032713;28;20072;-62
2023/06/29 05:06:04;;;;;;;41.63;22.48;;;19.00;95.90;;;;;;5035046;28;20070;-63
2023/06/29 05:08:30;;;;;;;39.85;23.30;;;19.10;95.60;;;;;;5040641;28;20040;-61
2023/06/29 05:10:56;;;;;;;35.40;22.75;;;19.20;95.40;;;;;;5046543;28;20321;-62
2023/06/29 05:13:21;;;;;;;41.67;23.75;;;19.30;95.10;;;;;;5036025;28;20057;-61
2023/06/29 05:15:47;;;;;;;37.90;22.40;;;19.50;94.90;;;;;;5015742;28;20033;-62
2023/06/29 05:18:13;;;;;;;38.35;22.77;;;19.50;94.60;;;;;;5036224;28;20045;-64
2023/06/29 05:20:39;;;;;;;37.10;23.70;;;19.60;94.40;;;;;;5036870;28;20043;-62
2023/06/29 05:23:04;;;;;;;38.53;23.13;;;19.70;94.30;;;;;;5027439;28;20049;-63
2023/06/29 05:25:30;;;;;;;40.08;22.60;;;19.70;94.10;;;;;;5031430;28;20041;-62
2023/06/29 05:27:56;;;;;;;37.38;24.00;;;19.80;93.90;;;;;;5028239;28;20037;-62
2023/06/29 05:30:21;;;;;;;37.35;21.85;;;19.80;93.80;;;;;;5030338;28;20045;-62
2023/06/29 05:32:47;;;;;;;35.03;21.92;;;19.80;93.60;;;;;;5033231;28;20064;-62
2023/06/29 05:35:13;;;;;;;37.67;21.17;;;19.90;93.60;;;;;;5030453;28;20045;-64
2023/06/29 05:37:39;;;;;;;36.75;22.65;;;20.00;93.50;;;;;;5040058;28;20044;-61
2023/06/29 05:40:06;;;;;;;37.80;21.40;;;20.00;93.40;;;;;;5037157;28;20041;-62
2023/06/29 05:42:32;;;;;;;39.58;22.23;;;20.00;93.30;;;;;;5037761;28;20071;-62
2023/06/29 05:44:58;;;;;;;35.25;21.60;;;20.00;93.10;;;;;;5037158;28;20036;-63
2023/06/29 05:47:24;;;;;;;33.90;21.13;;;20.00;93.00;;;;;;5040327;28;20110;-63
2023/06/29 05:49:50;;;;;;;37.30;21.55;;;20.00;92.90;;;;;;5043392;28;20392;-63
2023/06/29 05:52:15;;;;;;;33.55;21.13;;;20.10;92.70;;;;;;5033167;28;20036;-63
2023/06/29 05:54:41;;;;;;;35.58;21.45;;;20.10;92.50;;;;;;5030944;28;20486;-63
2023/06/29 05:57:06;;;;;;;40.78;22.33;;;20.20;92.30;;;;;;5032977;28;20112;-62
2023/06/29 05:59:32;;;;;;;33.72;20.45;;;20.30;92.00;;;;;;5030000;28;20194;-63
2023/06/29 06:01:58;;;;;;;35.05;21.20;;;20.30;91.80;;;;;;5041805;28;20041;-61
2023/06/29 06:04:24;;;;;;;39.15;22.30;;;20.40;91.50;;;;;;5033463;28;20052;-63
2023/06/29 06:06:49;;;;;;;37.35;21.45;;;20.50;91.30;;;;;;5036277;28;20200;-62
2023/06/29 06:09:15;;;;;;;35.28;20.92;;;20.60;91.00;;;;;;5031877;28;20120;-62
2023/06/29 06:11:41;;;;;;;34.85;20.55;;;20.70;90.80;;;;;;5035601;28;20044;-63
2023/06/29 06:14:06;;;;;;;33.50;20.70;;;20.90;90.40;;;;;;5040236;28;20160;-64
2023/06/29 06:16:32;;;;;;;35.40;20.08;;;20.90;90.20;;;;;;5031611;28;20505;-64
2023/06/29 06:18:57;;;;;;;39.30;19.95;;;21.00;90.10;;;;;;5033226;28;20382;-63
2023/06/29 06:21:26;;;;;;;34.42;19.85;;;21.10;90.00;;;;;;5037742;28;20033;-63
2023/06/29 06:23:53;;;;;;;29.50;18.50;;;21.20;89.60;;;;;;5031766;28;20195;-64
2023/06/29 06:26:18;;;;;;;34.03;20.27;;;21.40;89.30;;;;;;5034285;28;20112;-64
2023/06/29 06:28:44;;;;;;;32.72;18.33;;;21.60;88.30;;;;;;5027702;28;20037;-64
2023/06/29 06:31:09;;;;;;;33.25;17.48;;;21.70;87.60;;;;;;5037809;28;20132;-64
2023/06/29 06:33:35;;;;;;;33.10;18.92;;;21.80;86.80;;;;;;5030178;28;20084;-64
2023/06/29 06:36:02;;;;;;;28.80;18.20;;;21.80;86.30;;;;;;5026950;28;20072;-64
2023/06/29 06:38:28;;;;;;;31.75;17.75;;;21.70;85.80;;;;;;5032520;28;20033;-64
2023/06/29 06:40:53;;;;;;;31.52;18.73;;;21.60;85.80;;;;;;5031500;28;20106;-64
2023/06/29 06:43:19;;;;;;;32.60;18.60;;;21.50;85.70;;;;;;5028930;28;20428;-64
2023/06/29 06:45:44;;;;;;;33.08;18.08;;;21.50;85.70;;;;;;5033151;28;20155;-64
2023/06/29 06:48:10;;;;;;;31.80;18.75;;;21.40;86.10;;;;;;5029013;28;20221;-64
2023/06/29 06:50:36;;;;;;;34.30;19.65;;;21.30;86.50;;;;;;5030450;28;20084;-64
2023/06/29 06:53:01;;;;;;;28.88;18.13;;;21.10;86.70;;;;;;5040355;28;20080;-64
2023/06/29 06:55:27;;;;;;;33.13;17.77;;;21.10;87.00;;;;;;5037724;28;20028;-64
2023/06/29 06:57:53;;;;;;;29.85;18.13;;;21.10;87.00;;;;;;5033975;28;20574;-64
2023/06/29 07:00:19;;;;;;;29.85;17.55;;;21.00;87.30;;;;;;5046982;28;20117;-64
2023/06/29 07:02:45;;;;;;;33.80;17.52;;;20.80;87.70;;;;;;5042698;28;20449;-64
2023/06/29 07:05:10;;;;;;;32.20;18.33;;;20.60;89.00;;;;;;5051183;28;20166;-64
2023/06/29 07:07:36;;;;;;;32.72;18.40;;;20.40;90.40;;;;;;5048209;28;20416;-64
2023/06/29 07:10:02;;;;;;;35.25;19.30;;;20.20;90.90;;;;;;5039659;28;20479;-64
2023/06/29 07:12:28;;;;;;;32.47;18.98;;;20.00;91.60;;;;;;5042348;28;20476;-64
2023/06/29 07:14:53;;;;;;;29.05;17.20;;;20.00;92.60;;;;;;5035019;28;20041;-64
2023/06/29 07:17:19;;;;;;;32.17;18.83;;;19.90;92.80;;;;;;5046957;28;20032;-66
2023/06/29 07:19:44;;;;;;;31.88;19.25;;;20.00;93.60;;;;;;5045610;28;20852;-65
2023/06/29 07:22:10;;;;;;;31.80;19.17;;;19.90;94.30;;;;;;5046324;28;20037;-64
2023/06/29 07:24:35;;;;;;;34.03;18.75;;;19.90;94.70;;;;;;5051690;28;20037;-64
2023/06/29 07:27:01;;;;;;;33.85;18.42;;;19.90;95.10;;;;;;5046059;28;20042;-64
2023/06/29 07:29:27;;;;;;;37.03;20.02;;;19.70;95.00;;;;;;5028905;28;20053;-65
2023/06/29 07:31:53;;;;;;;33.35;19.00;;;19.70;95.70;;;;;;5047393;28;20037;-64
2023/06/29 07:34:23;;;;;;;35.90;18.92;;;19.70;96.30;;;;;;5030491;28;20327;-65
2023/06/29 07:36:49;;;;;;;33.42;17.83;;;19.60;96.80;;;;;;5042815;28;20052;-65
2023/06/29 07:39:14;;;;;;;34.58;18.80;;;19.60;97.00;;;;;;5050531;28;20037;-64
2023/06/29 07:41:40;;;;;;;31.30;18.52;;;19.50;97.40;;;;;;5050052;28;20044;-65
2023/06/29 07:44:06;;;;;;;36.50;20.00;;;19.50;97.70;;;;;;5043795;28;20049;-64
2023/06/29 07:46:31;;;;;;;35.38;19.70;;;19.50;98.10;;;;;;5042060;28;20043;-65
2023/06/29 07:48:58;;;;;;;37.42;20.48;;;19.60;98.10;;;;;;5032305;28;20446;-65
2023/06/29 07:51:25;;;;;;;37.05;19.88;;;19.60;97.50;;;;;;5047711;28;20139;-65
2023/06/29 07:53:52;;;;;;;35.15;19.45;;;19.80;97.20;;;;;;5044976;28;20080;-65
2023/06/29 07:56:18;;;;;;;37.03;20.73;;;19.90;97.30;;;;;;5034947;28;20041;-66
2023/06/29 07:58:44;;;;;;;38.83;20.13;;;20.20;97.00;;;;;;5041495;28;20122;-65
2023/06/29 08:01:09;;;;;;;36.47;20.52;;;20.40;96.20;;;;;;5044437;28;20100;-65
2023/06/29 08:03:35;;;;;;;38.78;20.88;;;20.40;94.80;;;;;;5044094;28;20032;-65
2023/06/29 08:06:00;;;;;;;36.70;21.15;;;20.50;94.90;;;;;;5042162;28;20132;-64
2023/06/29 08:08:29;;;;;;;35.10;20.98;;;20.70;93.80;;;;;;5033862;28;20100;-65
2023/06/29 08:10:55;;;;;;;34.10;20.77;;;20.90;93.40;;;;;;5033573;28;20057;-65
2023/06/29 08:13:21;;;;;;;33.80;19.85;;;21.10;92.90;;;;;;5044267;28;20049;-65
2023/06/29 08:15:47;;;;;;;33.85;19.75;;;21.40;92.50;;;;;;5034860;28;20443;-65
2023/06/29 08:18:12;;;;;;;39.15;20.88;;;21.70;91.90;;;;;;5036292;28;20147;-65
2023/06/29 08:20:38;;;;;;;36.38;20.85;;;21.60;90.80;;;;;;5047842;28;20032;-64
2023/06/29 08:23:04;;;;;;;36.50;21.90;;;21.70;90.30;;;;;;5043399;28;20072;-64
2023/06/29 08:25:29;;;;;;;37.08;23.13;;;21.70;89.50;;;;;;5049373;28;20702;-65
2023/06/29 08:27:55;;;;;;;39.30;22.05;;;21.70;88.70;;;;;;5042240;28;20038;-65
2023/06/29 08:30:21;;;;;;;39.22;22.83;;;21.60;88.00;;;;;;5029625;28;20521;-64
2023/06/29 08:32:48;;;;;;;42.45;25.15;;;21.50;87.50;;;;;;5029503;28;20111;-65
2023/06/29 08:35:14;;;;;;;40.28;23.48;;;21.40;87.80;;;;;;5045168;28;20703;-64
2023/06/29 08:37:39;;;;;;;41.75;23.70;;;20.90;90.80;;;;;;5046566;28;20059;-65
2023/06/29 08:40:06;;;;;;;44.53;26.25;;;20.60;92.60;;;;;;5041988;28;20029;-65
2023/06/29 08:42:32;;;;;;;45.13;25.27;;;20.30;93.70;;;;;;5045042;28;20037;-65
2023/06/29 08:44:57;;;;;;;44.85;25.25;;;20.10;95.40;;;;;;5039563;28;20091;-65
2023/06/29 08:47:24;;;;;;;46.83;25.20;;;20.00;97.80;;;;;;5041053;28;20041;-65
2023/06/29 08:49:56;;;;;;;46.58;26.30;;;20.00;99.90;;;;;;5049394;28;20052;-65
2023/06/29 08:52:25;;;;;;;42.47;24.65;;;20.20;99.90;;;;;;5042668;28;20041;-65
2023/06/29 08:54:52;;;;;;;43.88;26.20;;;20.20;99.90;;;;;;5043341;28;20068;-65
2023/06/29 08:57:18;;;;;;;43.13;25.13;;;20.30;99.90;;;;;;5033305;28;20033;-66
2023/06/29 08:59:44;;;;;;;40.92;24.83;;;20.50;99.90;;;;;;5040431;28;20039;-65
2023/06/29 09:02:10;;;;;;;46.35;25.30;;;20.60;99.90;;;;;;5046196;28;20102;-66
2023/06/29 09:04:36;;;;;;;40.05;24.90;;;20.70;99.90;;;;;;5044030;28;20045;-65
2023/06/29 09:07:03;;;;;;;43.60;26.50;;;20.80;99.90;;;;;;5037288;28;20040;-65
2023/06/29 09:09:30;;;;;;;44.50;26.00;;;20.80;99.90;;;;;;5027436;28;20102;-64
2023/06/29 09:11:55;;;;;;;46.70;24.92;;;20.90;99.90;;;;;;5038898;28;20049;-66
2023/06/29 09:14:23;;;;;;;39.75;24.02;;;20.90;99.90;;;;;;5044700;28;20048;-64
2023/06/29 09:16:53;;;;;;;39.67;24.05;;;20.90;99.90;;;;;;5034765;28;20029;-65
2023/06/29 09:19:20;;;;;;;38.63;22.63;;;21.00;96.10;;;;;;5039528;28;20059;-65
2023/06/29 09:21:47;;;;;;;39.90;24.60;;;21.20;98.90;;;;;;5039408;28;20033;-64
2023/06/29 09:24:14;;;;;;;40.45;24.15;;;21.30;96.90;;;;;;5031897;28;20427;-64
2023/06/29 09:26:40;;;;;;;37.50;21.83;;;21.50;96.20;;;;;;5028057;28;20151;-64
2023/06/29 09:29:05;;;;;;;35.13;20.80;;;21.50;95.20;;;;;;5034210;28;20133;-65
2023/06/29 09:31:35;;;;;;;34.40;21.70;;;21.40;95.10;;;;;;5029813;28;20390;-65
2023/06/29 09:34:21;;;;;;;34.20;21.67;;;21.50;94.60;;;;;;5038265;28;20154;-65
2023/06/29 09:36:48;;;;;;;32.65;20.58;;;21.50;90.70;;;;;;5037465;28;20151;-65
2023/06/29 09:39:14;;;;;;;32.88;21.42;;;21.50;93.00;;;;;;5045069;28;20048;-64
2023/06/29 09:41:54;;;;;;;32.10;20.30;;;21.60;92.40;;;;;;5044083;28;20140;-65
2023/06/29 09:44:22;;;;;;;;;;;21.80;89.90;;;;;;5044430;28;20040;-65
2023/06/29 09:46:48;;;;;;;35.67;19.95;;;21.80;85.90;;;;;;5046334;28;19924;-66
2023/06/29 09:49:14;;;;;;;31.42;19.90;;;21.90;90.60;;;;;;5046826;28;20049;-65
2023/06/29 09:51:40;;;;;;;32.75;19.33;;;22.20;89.60;;;;;;5048223;28;20170;-65
2023/06/29 09:54:13;;;;;;;33.75;18.98;;;22.40;87.90;;;;;;5041703;28;20128;-65
2023/06/29 09:56:40;;;;;;;36.30;19.90;;;22.50;86.00;;;;;;5034988;28;20179;-67
2023/06/29 09:59:10;;;;;;;33.60;19.25;;;22.60;84.80;;;;;;5045663;28;20189;-65
2023/06/29 10:01:36;;;;;;;37.55;20.52;;;22.70;83.70;;;;;;5037430;28;20041;-64
2023/06/29 10:04:04;;;;;;;30.25;18.38;;;22.70;82.70;;;;;;5032842;28;20079;-64
2023/06/29 10:06:33;;;;;;;31.17;19.55;;;22.70;81.50;;;;;;5034821;28;20060;-64
2023/06/29 10:09:00;;;;;;;34.90;20.05;;;22.80;79.10;;;;;;5044483;28;20048;-64
2023/06/29 10:11:31;;;;;;;31.42;19.52;;;22.70;79.70;;;;;;5037155;28;20043;-65
2023/06/29 10:14:03;;;;;;;32.92;20.50;;;22.70;79.10;;;;;;5036021;28;20457;-64
2023/06/29 10:16:36;;;;;;;38.03;20.35;;;22.60;80.30;;;;;;5042983;28;20043;-64
2023/06/29 10:19:22;;;;;;;34.72;18.85;;;22.40;80.50;;;;;;5040868;28;20052;-64
2023/06/29 10:22:02;;;;;;;32.22;19.02;;;22.30;77.40;;;;;;5044475;28;20033;-65
2023/06/29 10:24:32;;;;;;;40.33;19.95;;;22.30;79.30;;;;;;5031617;28;20128;-65
2023/06/29 10:26:58;;;;;;;29.05;17.63;;;22.10;78.30;;;;;;5046259;28;20044;-65
2023/06/29 10:29:24;;;;;;;29.30;17.60;;;22.00;76.30;;;;;;5044121;28;20052;-65
2023/06/29 10:31:56;;;;;;;32.28;19.52;;;21.80;78.80;;;;;;5045523;28;20040;-64
2023/06/29 10:34:25;;;;;;;34.20;20.33;;;21.70;79.60;;;;;;5043744;28;20484;-64
2023/06/29 10:36:52;;;;;;;32.83;19.23;;;21.50;81.80;;;;;;5048674;28;20041;-64
2023/06/29 10:39:41;;;;;;;34.17;18.17;;;21.30;83.00;;;;;;5035203;28;20040;-64
2023/06/29 10:42:12;;;;;;;35.00;19.52;;;21.10;82.20;;;;;;5047631;28;20052;-64
2023/06/29 10:44:37;;;;;;;;;;;21.00;84.20;;;;;;5040667;28;20132;-64
2023/06/29 10:47:03;;;;;;;29.05;17.10;;;21.00;85.80;;;;;;5047505;28;19964;-64
2023/06/29 10:49:29;;;;;;;28.67;16.58;;;21.00;85.60;;;;;;5040935;28;20085;-64
2023/06/29 10:52:01;;;;;;;31.48;18.08;;;21.00;85.20;;;;;;5037512;28;20110;-64
2023/06/29 10:54:27;;;;;;;30.75;17.08;;;21.00;84.60;;;;;;5042431;28;20096;-64
2023/06/29 10:56:57;;;;;;;30.52;17.85;;;21.00;84.50;;;;;;5042319;28;20037;-64
2023/06/29 10:59:23;;;;;;;29.42;16.73;;;21.10;83.70;;;;;;5037693;28;21095;-64
2023/06/29 11:01:50;;;;;;;29.10;15.98;;;21.10;83.70;;;;;;5042029;28;20097;-64
2023/06/29 11:04:16;;;;;;;30.65;17.98;;;21.20;83.60;;;;;;5042728;28;20048;-65
2023/06/29 11:06:41;;;;;;;35.60;19.30;;;21.30;83.30;;;;;;5047741;28;20049;-64
2023/06/29 11:09:12;;;;;;;32.42;18.50;;;21.40;82.70;;;;;;5041750;28;20132;-64
2023/06/29 11:11:38;;;;;;;34.72;19.55;;;21.60;82.30;;;;;;5044760;28;20112;-64
2023/06/29 11:14:04;;;;;;;30.77;17.42;;;21.70;82.40;;;;;;5033547;28;20330;-64
2023/06/29 11:16:31;;;;;;;32.80;19.55;;;21.90;81.50;;;;;;5034345;28;20099;-64
2023/06/29 11:18:56;;;;;;;30.90;17.50;;;22.10;80.00;;;;;;5037926;28;20135;-64
2023/06/29 11:21:25;;;;;;;37.00;20.38;;;22.20;79.70;;;;;;5027772;28;20458;-65
2023/06/29 11:23:51;;;;;;;34.42;19.63;;;22.20;78.20;;;;;;5035610;28;20042;-65
2023/06/29 11:26:17;;;;;;;37.00;21.00;;;22.30;78.20;;;;;;5040277;28;20049;-64
2023/06/29 11:28:42;;;;;;;37.30;20.23;;;22.40;78.10;;;;;;5032573;28;20036;-64
2023/06/29 11:31:08;;;;;;;33.58;18.98;;;22.70;77.80;;;;;;5040364;28;20116;-64
2023/06/29 11:33:33;;;;;;;33.28;19.42;;;22.90;77.20;;;;;;5035349;28;20038;-64
2023/06/29 11:36:00;;;;;;;36.65;20.30;;;23.10;76.80;;;;;;5044243;28;20068;-64
2023/06/29 11:38:26;;;;;;;38.97;21.00;;;23.10;76.00;;;;;;5048471;28;20041;-64
2023/06/29 11:41:05;;;;;;;35.53;20.08;;;23.20;75.60;;;;;;5047713;28;20125;-64
2023/06/29 11:43:30;;;;;;;33.35;20.67;;;23.30;75.00;;;;;;5038296;28;20120;-64
2023/06/29 11:45:57;;;;;;;35.60;20.48;;;23.50;75.00;;;;;;5047203;28;20512;-64
2023/06/29 11:48:23;;;;;;;33.47;20.50;;;23.50;74.20;;;;;;5050617;28;20465;-65
2023/06/29 11:50:48;;;;;;;36.75;20.92;;;23.60;73.80;;;;;;5050026;28;20072;-65
2023/06/29 11:53:15;;;;;;;35.35;21.55;;;23.60;73.00;;;;;;5039768;28;20037;-64
2023/06/29 11:55:50;;;;;;;34.40;20.33;;;23.90;72.20;;;;;;5046607;28;20071;-64
2023/06/29 11:58:15;;;;;;;34.80;21.00;;;24.10;72.20;;;;;;5044116;28;20049;-64
2023/06/29 12:00:41;;;;;;;31.65;20.58;;;24.20;71.90;;;;;;5047813;28;20131;-64
2023/06/29 12:03:08;;;;;;;33.40;20.38;;;24.20;71.30;;;;;;5047983;28;20049;-65
2023/06/29 12:05:38;;;;;;;34.15;20.70;;;24.10;71.30;;;;;;5049726;28;20128;-64
2023/06/29 12:08:05;;;;;;;31.33;20.10;;;24.00;71.30;;;;;;5050299;28;20111;-64
2023/06/29 12:10:35;;;;;;;33.88;20.58;;;24.10;71.10;;;;;;5046220;28;20606;-65
2023/06/29 12:13:01;;;;;;;30.38;19.20;;;24.20;70.30;;;;;;5044212;28;20381;-64
2023/06/29 12:15:31;;;;;;;31.92;19.02;;;24.50;70.00;;;;;;5047145;28;20143;-68
2023/06/29 12:18:14;;;;;;;29.40;18.80;;;24.80;68.90;;;;;;5050227;28;20498;-65
2023/06/29 12:20:41;;;;;;;29.90;18.67;;;25.10;66.70;;;;;;5050706;28;20033;-65
2023/06/29 12:23:08;;;;;;;32.90;19.88;;;25.50;67.30;;;;;;5048089;28;20107;-65
2023/06/29 12:25:42;;;;;;;31.60;19.23;;;26.00;65.50;;;;;;5049636;28;20044;-65